Terminal Aerodrome Forecast
Issued by NWS

Home | Current Version | Previous Version | Text Only | Print | Product List | Glossary On
Versions: 1 2 3 4 5 6 7 8 9 10 11 12 13
000
FTUS41 KBTV 241720
TAFRUT
TAF
KRUT 241720Z 2418/2518 24005KT P6SM SKC
     FM250000 14009KT P6SM SKC
     FM251400 18006KT P6SM SCT200
      AMD NOT SKED=

USA.gov is the U.S. government's official web portal to all federal, state and local government web resources and services.